sensor_id;sensor_type;location;lat;lon;timestamp;P1;durP1;ratioP1;P2;durP2;ratioP2
17761;SDS011;9005;48.838;10.112;2023-02-28T00:00:51;1.20;;;1.10;;
17761;SDS011;9005;48.838;10.112;2023-02-28T00:03:19;2.55;;;1.60;;
17761;SDS011;9005;48.838;10.112;2023-02-28T00:05:46;1.80;;;1.15;;
17761;SDS011;9005;48.838;10.112;2023-02-28T00:08:12;3.03;;;1.70;;
17761;SDS011;9005;48.838;10.112;2023-02-28T00:10:39;1.52;;;1.08;;
17761;SDS011;9005;48.838;10.112;2023-02-28T00:13:06;2.63;;;1.52;;
17761;SDS011;9005;48.838;10.112;2023-02-28T00:15:33;2.38;;;1.42;;
17761;SDS011;9005;48.838;10.112;2023-02-28T00:18:00;2.20;;;1.80;;
17761;SDS011;9005;48.838;10.112;2023-02-28T00:20:29;2.17;;;1.48;;
17761;SDS011;9005;48.838;10.112;2023-02-28T00:22:56;1.23;;;1.10;;
17761;SDS011;9005;48.838;10.112;2023-02-28T00:25:23;2.03;;;1.35;;
17761;SDS011;9005;48.838;10.112;2023-02-28T00:27:51;1.90;;;1.70;;
17761;SDS011;9005;48.838;10.112;2023-02-28T00:30:19;2.33;;;1.27;;
17761;SDS011;9005;48.838;10.112;2023-02-28T00:32:47;1.73;;;1.30;;
17761;SDS011;9005;48.838;10.112;2023-02-28T00:35:14;3.10;;;2.17;;
17761;SDS011;9005;48.838;10.112;2023-02-28T00:37:43;1.92;;;1.20;;
17761;SDS011;9005;48.838;10.112;2023-02-28T00:40:10;2.42;;;1.60;;
17761;SDS011;9005;48.838;10.112;2023-02-28T00:42:37;1.40;;;1.10;;
17761;SDS011;9005;48.838;10.112;2023-02-28T00:45:04;2.20;;;1.40;;
17761;SDS011;9005;48.838;10.112;2023-02-28T00:47:33;2.95;;;1.55;;
17761;SDS011;9005;48.838;10.112;2023-02-28T00:50:00;2.28;;;1.65;;
17761;SDS011;9005;48.838;10.112;2023-02-28T00:52:27;1.95;;;1.73;;
17761;SDS011;9005;48.838;10.112;2023-02-28T00:54:55;2.00;;;1.52;;
17761;SDS011;9005;48.838;10.112;2023-02-28T00:57:22;2.50;;;1.30;;
17761;SDS011;9005;48.838;10.112;2023-02-28T00:59:48;2.22;;;1.25;;
17761;SDS011;9005;48.838;10.112;2023-02-28T01:02:15;3.65;;;1.42;;
17761;SDS011;9005;48.838;10.112;2023-02-28T01:04:43;1.40;;;1.30;;
17761;SDS011;9005;48.838;10.112;2023-02-28T01:07:09;4.30;;;2.95;;
17761;SDS011;9005;48.838;10.112;2023-02-28T01:09:36;2.88;;;1.73;;
17761;SDS011;9005;48.838;10.112;2023-02-28T01:12:04;2.40;;;1.40;;
17761;SDS011;9005;48.838;10.112;2023-02-28T01:14:33;1.80;;;1.27;;
17761;SDS011;9005;48.838;10.112;2023-02-28T01:17:00;3.17;;;1.77;;
17761;SDS011;9005;48.838;10.112;2023-02-28T01:19:27;2.58;;;1.38;;
17761;SDS011;9005;48.838;10.112;2023-02-28T01:21:54;2.08;;;1.65;;
17761;SDS011;9005;48.838;10.112;2023-02-28T01:24:20;2.80;;;1.75;;
17761;SDS011;9005;48.838;10.112;2023-02-28T01:26:47;1.98;;;1.33;;
17761;SDS011;9005;48.838;10.112;2023-02-28T01:29:16;2.00;;;1.38;;
17761;SDS011;9005;48.838;10.112;2023-02-28T01:31:42;1.60;;;1.35;;
17761;SDS011;9005;48.838;10.112;2023-02-28T01:34:09;1.60;;;1.33;;
17761;SDS011;9005;48.838;10.112;2023-02-28T01:36:36;1.75;;;1.40;;
17761;SDS011;9005;48.838;10.112;2023-02-28T01:39:02;3.00;;;1.60;;
17761;SDS011;9005;48.838;10.112;2023-02-28T01:41:31;2.63;;;1.73;;
17761;SDS011;9005;48.838;10.112;2023-02-28T01:44:00;1.48;;;1.08;;
17761;SDS011;9005;48.838;10.112;2023-02-28T01:46:31;3.47;;;1.55;;
17761;SDS011;9005;48.838;10.112;2023-02-28T01:49:00;2.50;;;1.60;;
17761;SDS011;9005;48.838;10.112;2023-02-28T01:51:32;1.60;;;1.45;;
17761;SDS011;9005;48.838;10.112;2023-02-28T01:54:04;2.10;;;1.60;;
17761;SDS011;9005;48.838;10.112;2023-02-28T01:56:38;2.13;;;1.90;;
17761;SDS011;9005;48.838;10.112;2023-02-28T01:59:09;1.95;;;1.52;;
17761;SDS011;9005;48.838;10.112;2023-02-28T02:01:41;3.53;;;1.50;;
17761;SDS011;9005;48.838;10.112;2023-02-28T02:04:08;2.05;;;1.30;;
17761;SDS011;9005;48.838;10.112;2023-02-28T02:06:36;1.30;;;1.20;;
17761;SDS011;9005;48.838;10.112;2023-02-28T02:09:05;2.22;;;1.60;;
17761;SDS011;9005;48.838;10.112;2023-02-28T02:11:32;2.65;;;1.58;;
17761;SDS011;9005;48.838;10.112;2023-02-28T02:14:10;2.58;;;1.48;;
17761;SDS011;9005;48.838;10.112;2023-02-28T02:16:51;1.42;;;1.10;;
17761;SDS011;9005;48.838;10.112;2023-02-28T02:22:39;2.60;;;1.30;;
17761;SDS011;9005;48.838;10.112;2023-02-28T02:25:28;1.45;;;1.35;;
17761;SDS011;9005;48.838;10.112;2023-02-28T02:28:03;1.48;;;1.20;;
17761;SDS011;9005;48.838;10.112;2023-02-28T02:30:48;2.08;;;1.48;;
17761;SDS011;9005;48.838;10.112;2023-02-28T02:36:44;2.17;;;1.50;;
17761;SDS011;9005;48.838;10.112;2023-02-28T02:39:17;2.58;;;1.45;;
17761;SDS011;9005;48.838;10.112;2023-02-28T02:41:51;2.83;;;1.60;;
17761;SDS011;9005;48.838;10.112;2023-02-28T02:44:20;3.17;;;1.30;;
17761;SDS011;9005;48.838;10.112;2023-02-28T02:46:49;1.48;;;1.30;;
17761;SDS011;9005;48.838;10.112;2023-02-28T02:49:21;3.10;;;1.77;;
17761;SDS011;9005;48.838;10.112;2023-02-28T02:51:53;2.85;;;1.50;;
17761;SDS011;9005;48.838;10.112;2023-02-28T02:54:24;2.17;;;1.40;;
17761;SDS011;9005;48.838;10.112;2023-02-28T02:56:53;2.75;;;1.85;;
17761;SDS011;9005;48.838;10.112;2023-02-28T02:59:24;1.40;;;1.30;;
17761;SDS011;9005;48.838;10.112;2023-02-28T03:01:52;2.17;;;1.52;;
17761;SDS011;9005;48.838;10.112;2023-02-28T03:04:22;1.73;;;1.30;;
17761;SDS011;9005;48.838;10.112;2023-02-28T03:06:50;2.55;;;1.60;;
17761;SDS011;9005;48.838;10.112;2023-02-28T03:09:21;1.58;;;1.48;;
17761;SDS011;9005;48.838;10.112;2023-02-28T03:11:47;2.10;;;1.60;;
17761;SDS011;9005;48.838;10.112;2023-02-28T03:14:18;1.88;;;1.40;;
17761;SDS011;9005;48.838;10.112;2023-02-28T03:17:02;1.73;;;1.15;;
17761;SDS011;9005;48.838;10.112;2023-02-28T03:19:51;3.53;;;1.75;;
17761;SDS011;9005;48.838;10.112;2023-02-28T03:22:29;2.15;;;1.50;;
17761;SDS011;9005;48.838;10.112;2023-02-28T03:25:17;2.20;;;1.75;;
17761;SDS011;9005;48.838;10.112;2023-02-28T03:27:52;1.63;;;1.50;;
17761;SDS011;9005;48.838;10.112;2023-02-28T03:30:27;2.88;;;1.77;;
17761;SDS011;9005;48.838;10.112;2023-02-28T03:33:01;1.65;;;1.42;;
17761;SDS011;9005;48.838;10.112;2023-02-28T03:35:34;1.50;;;1.40;;
17761;SDS011;9005;48.838;10.112;2023-02-28T03:38:05;1.67;;;1.58;;
17761;SDS011;9005;48.838;10.112;2023-02-28T03:40:40;1.92;;;1.65;;
17761;SDS011;9005;48.838;10.112;2023-02-28T03:43:12;2.47;;;2.08;;
17761;SDS011;9005;48.838;10.112;2023-02-28T03:45:43;2.15;;;1.92;;
17761;SDS011;9005;48.838;10.112;2023-02-28T03:48:13;1.73;;;1.63;;
17761;SDS011;9005;48.838;10.112;2023-02-28T03:50:45;2.50;;;1.50;;
17761;SDS011;9005;48.838;10.112;2023-02-28T03:53:16;3.60;;;1.60;;
17761;SDS011;9005;48.838;10.112;2023-02-28T03:55:48;2.22;;;1.77;;
17761;SDS011;9005;48.838;10.112;2023-02-28T03:58:20;2.08;;;1.60;;
17761;SDS011;9005;48.838;10.112;2023-02-28T04:00:54;3.35;;;2.28;;
17761;SDS011;9005;48.838;10.112;2023-02-28T04:03:25;1.65;;;1.52;;
17761;SDS011;9005;48.838;10.112;2023-02-28T04:05:52;1.65;;;1.55;;
17761;SDS011;9005;48.838;10.112;2023-02-28T04:08:21;3.03;;;0.93;;
17761;SDS011;9005;48.838;10.112;2023-02-28T04:10:50;2.35;;;1.75;;
17761;SDS011;9005;48.838;10.112;2023-02-28T04:13:22;1.85;;;1.52;;
17761;SDS011;9005;48.838;10.112;2023-02-28T04:15:48;2.50;;;1.90;;
17761;SDS011;9005;48.838;10.112;2023-02-28T04:18:15;3.08;;;2.10;;
17761;SDS011;9005;48.838;10.112;2023-02-28T04:20:42;2.20;;;1.65;;
17761;SDS011;9005;48.838;10.112;2023-02-28T04:23:08;2.83;;;1.52;;
17761;SDS011;9005;48.838;10.112;2023-02-28T04:25:35;2.38;;;2.08;;
17761;SDS011;9005;48.838;10.112;2023-02-28T04:28:03;2.15;;;1.95;;
17761;SDS011;9005;48.838;10.112;2023-02-28T04:30:30;2.10;;;1.75;;
17761;SDS011;9005;48.838;10.112;2023-02-28T04:32:58;3.45;;;1.95;;
17761;SDS011;9005;48.838;10.112;2023-02-28T04:35:25;2.50;;;1.60;;
17761;SDS011;9005;48.838;10.112;2023-02-28T04:37:52;4.10;;;1.83;;
17761;SDS011;9005;48.838;10.112;2023-02-28T04:40:18;2.53;;;2.08;;
17761;SDS011;9005;48.838;10.112;2023-02-28T04:42:45;3.42;;;2.10;;
17761;SDS011;9005;48.838;10.112;2023-02-28T04:45:13;2.75;;;2.15;;
17761;SDS011;9005;48.838;10.112;2023-02-28T04:47:40;2.25;;;2.00;;
17761;SDS011;9005;48.838;10.112;2023-02-28T04:50:07;3.33;;;2.40;;
17761;SDS011;9005;48.838;10.112;2023-02-28T04:52:35;2.85;;;2.28;;
17761;SDS011;9005;48.838;10.112;2023-02-28T04:55:01;3.92;;;2.30;;
17761;SDS011;9005;48.838;10.112;2023-02-28T04:57:28;2.28;;;1.77;;
17761;SDS011;9005;48.838;10.112;2023-02-28T04:59:55;2.92;;;2.08;;
17761;SDS011;9005;48.838;10.112;2023-02-28T05:02:23;2.00;;;1.80;;
17761;SDS011;9005;48.838;10.112;2023-02-28T05:04:50;3.17;;;1.92;;
17761;SDS011;9005;48.838;10.112;2023-02-28T05:07:16;4.13;;;2.55;;
17761;SDS011;9005;48.838;10.112;2023-02-28T05:09:43;3.10;;;2.03;;
17761;SDS011;9005;48.838;10.112;2023-02-28T05:12:10;2.53;;;2.20;;
17761;SDS011;9005;48.838;10.112;2023-02-28T05:14:36;2.80;;;2.50;;
17761;SDS011;9005;48.838;10.112;2023-02-28T05:17:03;3.00;;;2.28;;
17761;SDS011;9005;48.838;10.112;2023-02-28T05:19:31;4.55;;;2.67;;
17761;SDS011;9005;48.838;10.112;2023-02-28T05:21:58;3.88;;;2.30;;
17761;SDS011;9005;48.838;10.112;2023-02-28T05:24:25;3.25;;;2.13;;
17761;SDS011;9005;48.838;10.112;2023-02-28T05:26:52;2.55;;;2.20;;
17761;SDS011;9005;48.838;10.112;2023-02-28T05:29:19;2.78;;;2.30;;
17761;SDS011;9005;48.838;10.112;2023-02-28T05:31:46;2.88;;;2.20;;
17761;SDS011;9005;48.838;10.112;2023-02-28T05:34:13;2.83;;;2.33;;
17761;SDS011;9005;48.838;10.112;2023-02-28T05:36:42;2.67;;;2.20;;
17761;SDS011;9005;48.838;10.112;2023-02-28T05:39:09;2.35;;;2.15;;
17761;SDS011;9005;48.838;10.112;2023-02-28T05:41:37;2.80;;;2.13;;
17761;SDS011;9005;48.838;10.112;2023-02-28T05:44:06;2.92;;;2.42;;
17761;SDS011;9005;48.838;10.112;2023-02-28T05:46:33;2.63;;;2.10;;
17761;SDS011;9005;48.838;10.112;2023-02-28T05:48:59;3.17;;;2.63;;
17761;SDS011;9005;48.838;10.112;2023-02-28T05:51:26;4.75;;;2.90;;
17761;SDS011;9005;48.838;10.112;2023-02-28T05:53:54;4.25;;;2.78;;
17761;SDS011;9005;48.838;10.112;2023-02-28T05:56:24;2.67;;;2.25;;
17761;SDS011;9005;48.838;10.112;2023-02-28T05:58:50;3.00;;;2.17;;
17761;SDS011;9005;48.838;10.112;2023-02-28T06:01:22;2.60;;;2.13;;
17761;SDS011;9005;48.838;10.112;2023-02-28T06:03:50;2.70;;;2.40;;
17761;SDS011;9005;48.838;10.112;2023-02-28T06:06:17;3.47;;;2.20;;
17761;SDS011;9005;48.838;10.112;2023-02-28T06:08:44;2.78;;;2.42;;
17761;SDS011;9005;48.838;10.112;2023-02-28T06:11:12;2.95;;;2.10;;
17761;SDS011;9005;48.838;10.112;2023-02-28T06:13:39;4.22;;;3.33;;
17761;SDS011;9005;48.838;10.112;2023-02-28T06:16:06;4.35;;;2.47;;
17761;SDS011;9005;48.838;10.112;2023-02-28T06:18:34;2.50;;;2.30;;
17761;SDS011;9005;48.838;10.112;2023-02-28T06:21:01;3.40;;;2.40;;
17761;SDS011;9005;48.838;10.112;2023-02-28T06:23:27;13.77;;;3.25;;
17761;SDS011;9005;48.838;10.112;2023-02-28T06:25:54;3.13;;;2.58;;
17761;SDS011;9005;48.838;10.112;2023-02-28T06:28:24;3.42;;;2.45;;
17761;SDS011;9005;48.838;10.112;2023-02-28T06:30:51;2.92;;;2.65;;
17761;SDS011;9005;48.838;10.112;2023-02-28T06:33:18;4.03;;;3.63;;
17761;SDS011;9005;48.838;10.112;2023-02-28T06:35:46;10.27;;;3.83;;
17761;SDS011;9005;48.838;10.112;2023-02-28T06:38:13;2.63;;;1.67;;
17761;SDS011;9005;48.838;10.112;2023-02-28T06:40:39;4.32;;;2.60;;
17761;SDS011;9005;48.838;10.112;2023-02-28T06:43:06;3.88;;;2.78;;
17761;SDS011;9005;48.838;10.112;2023-02-28T06:45:34;3.63;;;2.70;;
17761;SDS011;9005;48.838;10.112;2023-02-28T06:48:01;4.53;;;2.80;;
17761;SDS011;9005;48.838;10.112;2023-02-28T06:50:28;6.05;;;2.47;;
17761;SDS011;9005;48.838;10.112;2023-02-28T06:52:55;3.60;;;2.40;;
17761;SDS011;9005;48.838;10.112;2023-02-28T06:55:22;3.35;;;2.60;;
17761;SDS011;9005;48.838;10.112;2023-02-28T06:57:49;3.13;;;2.80;;
17761;SDS011;9005;48.838;10.112;2023-02-28T07:00:16;3.50;;;2.67;;
17761;SDS011;9005;48.838;10.112;2023-02-28T07:02:45;4.00;;;2.20;;
17761;SDS011;9005;48.838;10.112;2023-02-28T07:05:12;7.68;;;4.18;;
17761;SDS011;9005;48.838;10.112;2023-02-28T07:07:39;3.13;;;2.65;;
17761;SDS011;9005;48.838;10.112;2023-02-28T07:10:09;3.47;;;2.40;;
17761;SDS011;9005;48.838;10.112;2023-02-28T07:12:37;4.03;;;2.60;;
17761;SDS011;9005;48.838;10.112;2023-02-28T07:15:04;2.72;;;2.17;;
17761;SDS011;9005;48.838;10.112;2023-02-28T07:17:32;4.53;;;2.78;;
17761;SDS011;9005;48.838;10.112;2023-02-28T07:20:00;3.53;;;3.20;;
17761;SDS011;9005;48.838;10.112;2023-02-28T07:22:29;4.00;;;2.80;;
17761;SDS011;9005;48.838;10.112;2023-02-28T07:24:56;3.25;;;2.72;;
17761;SDS011;9005;48.838;10.112;2023-02-28T07:27:22;2.75;;;2.30;;
17761;SDS011;9005;48.838;10.112;2023-02-28T07:29:50;3.63;;;2.75;;
17761;SDS011;9005;48.838;10.112;2023-02-28T07:32:18;3.63;;;2.92;;
17761;SDS011;9005;48.838;10.112;2023-02-28T07:34:45;3.00;;;2.42;;
17761;SDS011;9005;48.838;10.112;2023-02-28T07:37:13;2.97;;;2.67;;
17761;SDS011;9005;48.838;10.112;2023-02-28T07:39:40;4.18;;;3.20;;
17761;SDS011;9005;48.838;10.112;2023-02-28T07:42:08;4.05;;;3.65;;
17761;SDS011;9005;48.838;10.112;2023-02-28T07:44:37;3.80;;;2.78;;
17761;SDS011;9005;48.838;10.112;2023-02-28T07:47:05;4.65;;;3.05;;
17761;SDS011;9005;48.838;10.112;2023-02-28T07:49:32;3.20;;;2.90;;
17761;SDS011;9005;48.838;10.112;2023-02-28T07:51:59;3.63;;;2.85;;
17761;SDS011;9005;48.838;10.112;2023-02-28T07:54:28;3.83;;;2.67;;
17761;SDS011;9005;48.838;10.112;2023-02-28T07:56:55;3.30;;;2.97;;
17761;SDS011;9005;48.838;10.112;2023-02-28T07:59:22;4.15;;;3.10;;
17761;SDS011;9005;48.838;10.112;2023-02-28T08:01:49;4.25;;;3.22;;
17761;SDS011;9005;48.838;10.112;2023-02-28T08:04:16;3.65;;;2.45;;
17761;SDS011;9005;48.838;10.112;2023-02-28T08:06:43;4.88;;;3.92;;
17761;SDS011;9005;48.838;10.112;2023-02-28T08:09:11;3.47;;;3.15;;
17761;SDS011;9005;48.838;10.112;2023-02-28T08:11:39;4.10;;;3.45;;
17761;SDS011;9005;48.838;10.112;2023-02-28T08:14:06;3.90;;;2.50;;
17761;SDS011;9005;48.838;10.112;2023-02-28T08:16:32;3.53;;;3.22;;
17761;SDS011;9005;48.838;10.112;2023-02-28T08:18:59;4.22;;;2.85;;
17761;SDS011;9005;48.838;10.112;2023-02-28T08:21:26;3.50;;;2.88;;
17761;SDS011;9005;48.838;10.112;2023-02-28T08:23:52;3.60;;;3.03;;
17761;SDS011;9005;48.838;10.112;2023-02-28T08:26:19;3.63;;;3.33;;
17761;SDS011;9005;48.838;10.112;2023-02-28T08:28:48;3.47;;;2.83;;
17761;SDS011;9005;48.838;10.112;2023-02-28T08:31:15;3.28;;;2.97;;
17761;SDS011;9005;48.838;10.112;2023-02-28T08:33:42;3.67;;;2.78;;
17761;SDS011;9005;48.838;10.112;2023-02-28T08:36:10;3.83;;;3.03;;
17761;SDS011;9005;48.838;10.112;2023-02-28T08:38:37;3.63;;;3.33;;
17761;SDS011;9005;48.838;10.112;2023-02-28T08:41:05;3.60;;;2.88;;
17761;SDS011;9005;48.838;10.112;2023-02-28T08:43:34;2.60;;;2.15;;
17761;SDS011;9005;48.838;10.112;2023-02-28T08:46:02;4.55;;;3.03;;
17761;SDS011;9005;48.838;10.112;2023-02-28T08:48:30;3.80;;;3.20;;
17761;SDS011;9005;48.838;10.112;2023-02-28T08:50:59;2.28;;;1.42;;
17761;SDS011;9005;48.838;10.112;2023-02-28T08:53:27;3.33;;;2.90;;
17761;SDS011;9005;48.838;10.112;2023-02-28T08:55:57;5.38;;;3.30;;
17761;SDS011;9005;48.838;10.112;2023-02-28T08:58:24;5.28;;;3.90;;
17761;SDS011;9005;48.838;10.112;2023-02-28T09:00:52;4.65;;;3.45;;
17761;SDS011;9005;48.838;10.112;2023-02-28T09:03:21;3.08;;;2.78;;
17761;SDS011;9005;48.838;10.112;2023-02-28T09:05:51;3.85;;;3.03;;
17761;SDS011;9005;48.838;10.112;2023-02-28T09:08:19;3.53;;;2.47;;
17761;SDS011;9005;48.838;10.112;2023-02-28T09:10:46;6.13;;;3.45;;
17761;SDS011;9005;48.838;10.112;2023-02-28T09:13:13;3.75;;;2.97;;
17761;SDS011;9005;48.838;10.112;2023-02-28T09:15:39;7.65;;;3.10;;
17761;SDS011;9005;48.838;10.112;2023-02-28T09:18:06;4.35;;;3.33;;
17761;SDS011;9005;48.838;10.112;2023-02-28T09:20:34;3.10;;;2.80;;
17761;SDS011;9005;48.838;10.112;2023-02-28T09:23:03;5.93;;;3.40;;
17761;SDS011;9005;48.838;10.112;2023-02-28T09:25:30;2.97;;;2.78;;
17761;SDS011;9005;48.838;10.112;2023-02-28T09:27:57;3.17;;;2.70;;
17761;SDS011;9005;48.838;10.112;2023-02-28T09:30:23;3.30;;;3.00;;
17761;SDS011;9005;48.838;10.112;2023-02-28T09:32:50;4.20;;;3.15;;
17761;SDS011;9005;48.838;10.112;2023-02-28T09:35:18;4.03;;;3.28;;
17761;SDS011;9005;48.838;10.112;2023-02-28T09:37:47;3.03;;;2.38;;
17761;SDS011;9005;48.838;10.112;2023-02-28T09:40:14;4.55;;;3.30;;
17761;SDS011;9005;48.838;10.112;2023-02-28T09:42:43;3.53;;;3.10;;
17761;SDS011;9005;48.838;10.112;2023-02-28T09:45:22;3.80;;;3.22;;
17761;SDS011;9005;48.838;10.112;2023-02-28T09:47:53;4.38;;;3.10;;
17761;SDS011;9005;48.838;10.112;2023-02-28T09:50:28;3.33;;;3.03;;
17761;SDS011;9005;48.838;10.112;2023-02-28T09:53:01;3.92;;;2.72;;
17761;SDS011;9005;48.838;10.112;2023-02-28T09:55:31;3.70;;;3.20;;
17761;SDS011;9005;48.838;10.112;2023-02-28T09:58:03;5.03;;;3.70;;
17761;SDS011;9005;48.838;10.112;2023-02-28T10:00:32;4.07;;;3.28;;
17761;SDS011;9005;48.838;10.112;2023-02-28T10:03:04;3.92;;;3.20;;
17761;SDS011;9005;48.838;10.112;2023-02-28T10:05:43;3.67;;;3.38;;
17761;SDS011;9005;48.838;10.112;2023-02-28T10:08:18;2.33;;;2.13;;
17761;SDS011;9005;48.838;10.112;2023-02-28T10:10:50;3.90;;;2.95;;
17761;SDS011;9005;48.838;10.112;2023-02-28T10:13:22;3.65;;;3.05;;
17761;SDS011;9005;48.838;10.112;2023-02-28T10:15:52;5.22;;;3.83;;
17761;SDS011;9005;48.838;10.112;2023-02-28T10:18:24;3.67;;;3.22;;
17761;SDS011;9005;48.838;10.112;2023-02-28T10:20:55;3.92;;;2.78;;
17761;SDS011;9005;48.838;10.112;2023-02-28T10:23:25;2.80;;;2.47;;
17761;SDS011;9005;48.838;10.112;2023-02-28T10:25:55;3.42;;;3.13;;
17761;SDS011;9005;48.838;10.112;2023-02-28T10:28:25;3.97;;;3.47;;
17761;SDS011;9005;48.838;10.112;2023-02-28T10:30:55;3.88;;;3.47;;
17761;SDS011;9005;48.838;10.112;2023-02-28T10:33:25;3.65;;;2.97;;
17761;SDS011;9005;48.838;10.112;2023-02-28T10:35:54;3.60;;;3.17;;
17761;SDS011;9005;48.838;10.112;2023-02-28T10:38:22;3.30;;;2.47;;
17761;SDS011;9005;48.838;10.112;2023-02-28T10:40:53;2.83;;;2.63;;
17761;SDS011;9005;48.838;10.112;2023-02-28T10:43:30;3.92;;;2.35;;
17761;SDS011;9005;48.838;10.112;2023-02-28T10:45:58;5.43;;;3.00;;
17761;SDS011;9005;48.838;10.112;2023-02-28T10:48:29;2.33;;;2.13;;
17761;SDS011;9005;48.838;10.112;2023-02-28T10:50:58;4.57;;;3.10;;
17761;SDS011;9005;48.838;10.112;2023-02-28T10:53:35;3.47;;;2.80;;
17761;SDS011;9005;48.838;10.112;2023-02-28T10:56:05;2.97;;;2.25;;
17761;SDS011;9005;48.838;10.112;2023-02-28T10:58:46;3.60;;;2.78;;
17761;SDS011;9005;48.838;10.112;2023-02-28T11:01:16;3.22;;;2.33;;
17761;SDS011;9005;48.838;10.112;2023-02-28T11:03:44;3.75;;;2.50;;
17761;SDS011;9005;48.838;10.112;2023-02-28T11:06:16;2.97;;;2.67;;
17761;SDS011;9005;48.838;10.112;2023-02-28T11:08:50;3.75;;;2.97;;
17761;SDS011;9005;48.838;10.112;2023-02-28T11:11:18;2.40;;;2.20;;
17761;SDS011;9005;48.838;10.112;2023-02-28T11:13:46;4.25;;;2.90;;
17761;SDS011;9005;48.838;10.112;2023-02-28T11:16:16;1.85;;;1.73;;
17761;SDS011;9005;48.838;10.112;2023-02-28T11:18:43;4.25;;;3.00;;
17761;SDS011;9005;48.838;10.112;2023-02-28T11:21:15;2.55;;;2.35;;
17761;SDS011;9005;48.838;10.112;2023-02-28T11:23:44;3.33;;;3.03;;
17761;SDS011;9005;48.838;10.112;2023-02-28T11:26:13;2.10;;;1.90;;
17761;SDS011;9005;48.838;10.112;2023-02-28T11:28:41;2.95;;;2.75;;
17761;SDS011;9005;48.838;10.112;2023-02-28T11:31:15;3.38;;;3.03;;
17761;SDS011;9005;48.838;10.112;2023-02-28T11:33:45;3.05;;;2.75;;
17761;SDS011;9005;48.838;10.112;2023-02-28T11:36:16;3.35;;;3.05;;
17761;SDS011;9005;48.838;10.112;2023-02-28T11:38:45;3.30;;;2.03;;
17761;SDS011;9005;48.838;10.112;2023-02-28T11:44:29;3.63;;;2.60;;
17761;SDS011;9005;48.838;10.112;2023-02-28T11:47:06;2.17;;;1.85;;
17761;SDS011;9005;48.838;10.112;2023-02-28T11:49:42;3.38;;;2.78;;
17761;SDS011;9005;48.838;10.112;2023-02-28T11:52:19;3.58;;;3.28;;
17761;SDS011;9005;48.838;10.112;2023-02-28T11:54:53;3.45;;;2.75;;
17761;SDS011;9005;48.838;10.112;2023-02-28T11:57:53;2.85;;;1.67;;
17761;SDS011;9005;48.838;10.112;2023-02-28T12:00:32;3.80;;;2.95;;
17761;SDS011;9005;48.838;10.112;2023-02-28T12:03:10;3.22;;;2.45;;
17761;SDS011;9005;48.838;10.112;2023-02-28T12:05:45;3.22;;;2.92;;
17761;SDS011;9005;48.838;10.112;2023-02-28T12:08:20;2.65;;;2.45;;
17761;SDS011;9005;48.838;10.112;2023-02-28T12:10:54;2.75;;;2.53;;
17761;SDS011;9005;48.838;10.112;2023-02-28T12:13:31;1.45;;;1.35;;
17761;SDS011;9005;48.838;10.112;2023-02-28T12:16:22;3.47;;;2.30;;
17761;SDS011;9005;48.838;10.112;2023-02-28T12:19:09;3.10;;;2.67;;
17761;SDS011;9005;48.838;10.112;2023-02-28T12:21:49;3.28;;;2.85;;
17761;SDS011;9005;48.838;10.112;2023-02-28T12:24:50;4.22;;;2.67;;
17761;SDS011;9005;48.838;10.112;2023-02-28T12:27:46;2.40;;;2.17;;
17761;SDS011;9005;48.838;10.112;2023-02-28T12:30:16;4.30;;;2.70;;
17761;SDS011;9005;48.838;10.112;2023-02-28T12:32:48;3.40;;;3.10;;
17761;SDS011;9005;48.838;10.112;2023-02-28T12:35:19;3.47;;;2.55;;
17761;SDS011;9005;48.838;10.112;2023-02-28T12:37:51;3.45;;;2.90;;
17761;SDS011;9005;48.838;10.112;2023-02-28T12:40:23;3.92;;;3.10;;
17761;SDS011;9005;48.838;10.112;2023-02-28T12:42:55;3.92;;;2.63;;
17761;SDS011;9005;48.838;10.112;2023-02-28T12:45:25;2.88;;;2.50;;
17761;SDS011;9005;48.838;10.112;2023-02-28T12:48:08;3.05;;;2.63;;
17761;SDS011;9005;48.838;10.112;2023-02-28T12:50:39;3.42;;;2.88;;
17761;SDS011;9005;48.838;10.112;2023-02-28T12:53:08;3.17;;;2.88;;
17761;SDS011;9005;48.838;10.112;2023-02-28T12:55:40;2.80;;;2.05;;
17761;SDS011;9005;48.838;10.112;2023-02-28T12:58:13;3.80;;;2.83;;
17761;SDS011;9005;48.838;10.112;2023-02-28T13:00:49;3.67;;;2.00;;
17761;SDS011;9005;48.838;10.112;2023-02-28T13:03:34;5.50;;;3.15;;
17761;SDS011;9005;48.838;10.112;2023-02-28T13:09:09;5.13;;;2.75;;
17761;SDS011;9005;48.838;10.112;2023-02-28T13:11:41;3.97;;;3.20;;
17761;SDS011;9005;48.838;10.112;2023-02-28T13:16:56;3.97;;;3.58;;
17761;SDS011;9005;48.838;10.112;2023-02-28T13:19:30;3.85;;;2.45;;
17761;SDS011;9005;48.838;10.112;2023-02-28T13:21:59;3.75;;;3.40;;
17761;SDS011;9005;48.838;10.112;2023-02-28T13:24:38;4.45;;;3.58;;
17761;SDS011;9005;48.838;10.112;2023-02-28T13:27:22;4.63;;;3.60;;
17761;SDS011;9005;48.838;10.112;2023-02-28T13:29:57;6.45;;;3.17;;
17761;SDS011;9005;48.838;10.112;2023-02-28T13:38:31;3.63;;;2.67;;
17761;SDS011;9005;48.838;10.112;2023-02-28T13:44:13;3.30;;;2.78;;
17761;SDS011;9005;48.838;10.112;2023-02-28T13:49:47;3.42;;;3.13;;
17761;SDS011;9005;48.838;10.112;2023-02-28T13:52:16;4.05;;;3.75;;
17761;SDS011;9005;48.838;10.112;2023-02-28T13:57:54;4.32;;;3.22;;
17761;SDS011;9005;48.838;10.112;2023-02-28T14:00:34;3.67;;;3.33;;
17761;SDS011;9005;48.838;10.112;2023-02-28T14:03:11;4.53;;;3.10;;
17761;SDS011;9005;48.838;10.112;2023-02-28T14:08:54;4.22;;;3.42;;
17761;SDS011;9005;48.838;10.112;2023-02-28T14:11:28;3.70;;;3.40;;
17761;SDS011;9005;48.838;10.112;2023-02-28T14:13:59;4.03;;;3.40;;
17761;SDS011;9005;48.838;10.112;2023-02-28T14:16:27;3.80;;;3.10;;
17761;SDS011;9005;48.838;10.112;2023-02-28T14:19:05;3.40;;;3.10;;
17761;SDS011;9005;48.838;10.112;2023-02-28T14:21:38;4.50;;;3.28;;
17761;SDS011;9005;48.838;10.112;2023-02-28T14:27:31;4.30;;;3.33;;
17761;SDS011;9005;48.838;10.112;2023-02-28T14:33:22;4.00;;;3.30;;
17761;SDS011;9005;48.838;10.112;2023-02-28T14:38:40;5.80;;;3.38;;
17761;SDS011;9005;48.838;10.112;2023-02-28T14:41:18;3.25;;;2.60;;
17761;SDS011;9005;48.838;10.112;2023-02-28T14:43:49;4.47;;;3.00;;
17761;SDS011;9005;48.838;10.112;2023-02-28T14:46:18;3.28;;;2.97;;
17761;SDS011;9005;48.838;10.112;2023-02-28T14:48:46;3.15;;;2.85;;
17761;SDS011;9005;48.838;10.112;2023-02-28T14:51:18;3.80;;;3.47;;
17761;SDS011;9005;48.838;10.112;2023-02-28T14:53:48;3.53;;;3.22;;
17761;SDS011;9005;48.838;10.112;2023-02-28T14:56:21;4.10;;;3.60;;
17761;SDS011;9005;48.838;10.112;2023-02-28T14:58:55;3.90;;;3.25;;
17761;SDS011;9005;48.838;10.112;2023-02-28T15:01:23;3.30;;;3.00;;
17761;SDS011;9005;48.838;10.112;2023-02-28T15:03:57;3.22;;;2.92;;
17761;SDS011;9005;48.838;10.112;2023-02-28T15:06:27;3.75;;;3.45;;
17761;SDS011;9005;48.838;10.112;2023-02-28T15:09:06;3.47;;;3.17;;
17761;SDS011;9005;48.838;10.112;2023-02-28T15:11:34;5.93;;;4.07;;
17761;SDS011;9005;48.838;10.112;2023-02-28T15:14:04;4.30;;;3.72;;
17761;SDS011;9005;48.838;10.112;2023-02-28T15:16:31;3.55;;;2.72;;
17761;SDS011;9005;48.838;10.112;2023-02-28T15:19:04;4.00;;;3.63;;
17761;SDS011;9005;48.838;10.112;2023-02-28T15:21:34;4.05;;;3.63;;
17761;SDS011;9005;48.838;10.112;2023-02-28T15:24:04;4.13;;;3.67;;
17761;SDS011;9005;48.838;10.112;2023-02-28T15:26:33;4.85;;;4.18;;
17761;SDS011;9005;48.838;10.112;2023-02-28T15:29:06;4.40;;;3.85;;
17761;SDS011;9005;48.838;10.112;2023-02-28T15:31:35;3.47;;;3.17;;
17761;SDS011;9005;48.838;10.112;2023-02-28T15:34:12;5.30;;;3.80;;
17761;SDS011;9005;48.838;10.112;2023-02-28T15:36:44;5.00;;;3.30;;
17761;SDS011;9005;48.838;10.112;2023-02-28T15:39:19;3.83;;;3.53;;
17761;SDS011;9005;48.838;10.112;2023-02-28T15:41:47;4.38;;;3.97;;
17761;SDS011;9005;48.838;10.112;2023-02-28T15:44:16;4.10;;;3.65;;
17761;SDS011;9005;48.838;10.112;2023-02-28T15:46:55;3.72;;;3.35;;
17761;SDS011;9005;48.838;10.112;2023-02-28T15:49:26;3.72;;;3.33;;